Time;durP1;ratioP1;P1;durP2;ratioP2;P2;SDS_P1;SDS_P2;PMS_P1;PMS_P2;Temp;Humidity;BMP_temperature;BMP_pressure;BME280_temperature;BME280_humidity;BME280_pressure;Samples;Min_cycle;Max_cycle;Signal;HPM_P1;HPM_P2
2022/10/03 00:01:42;;;;;;;58.72;33.40;;;10.30;99.90;;;;;;5071913;28;20032;-72
2022/10/03 00:04:07;;;;;;;60.75;31.25;;;10.30;99.90;;;;;;5072086;28;20025;-73
2022/10/03 00:07:00;;;;;;;74.57;36.35;;;10.30;99.90;;;;;;5069792;28;20116;-73
2022/10/03 00:09:35;;;;;;;68.38;34.38;;;10.20;99.90;;;;;;5072003;28;20024;-72
2022/10/03 00:12:29;;;;;;;59.58;32.95;;;10.20;99.90;;;;;;5067547;28;20024;-72
2022/10/03 00:15:25;;;;;;;74.43;35.47;;;10.20;99.90;;;;;;5073398;28;20051;-72
2022/10/03 00:17:56;;;;;;;122.72;44.78;;;10.20;99.90;;;;;;5071225;28;20489;-73
2022/10/03 00:20:48;;;;;;;119.28;40.78;;;10.10;99.90;;;;;;5071886;28;20478;-73
2022/10/03 00:23:17;;;;;;;485.65;50.05;;;10.00;99.90;;;;;;5057518;28;20059;-72
2022/10/03 00:25:59;;;;;;;149.98;37.30;;;9.80;99.90;;;;;;5071574;28;20023;-72
2022/10/03 00:29:15;;;;;;;38.33;26.38;;;9.80;99.90;;;;;;5071493;28;20516;-73
2022/10/03 00:31:55;;;;;;;42.83;27.67;;;9.90;99.90;;;;;;5016915;28;20041;-73
2022/10/03 00:34:23;;;;;;;56.28;30.45;;;9.90;99.90;;;;;;5069814;28;20477;-73
2022/10/03 00:36:55;;;;;;;43.72;29.20;;;9.90;99.90;;;;;;5071267;28;20024;-72
2022/10/03 00:39:21;;;;;;;60.65;34.58;;;9.90;99.90;;;;;;5070439;28;20150;-73
2022/10/03 00:42:06;;;;;;;66.45;34.42;;;9.90;99.90;;;;;;5071412;28;20529;-73
2022/10/03 00:44:54;;;;;;;84.75;39.92;;;9.70;99.90;;;;;;5070228;28;20027;-73
2022/10/03 00:47:29;;;;;;;89.32;39.45;;;9.60;99.90;;;;;;5069934;28;20375;-73
2022/10/03 00:50:17;;;;;;;360.05;45.38;;;9.50;99.90;;;;;;5071357;28;20025;-72
2022/10/03 00:53:12;;;;;;;185.57;44.47;;;9.40;99.90;;;;;;5070197;28;20128;-72
2022/10/03 00:56:01;;;;;;;60.45;32.00;;;9.50;99.90;;;;;;5071337;28;20028;-73
2022/10/03 00:58:38;;;;;;;66.15;33.30;;;9.50;99.90;;;;;;5071178;28;20043;-72
2022/10/03 01:01:28;;;;;;;53.45;30.20;;;9.40;99.90;;;;;;5069973;28;20112;-73
2022/10/03 01:04:18;;;;;;;55.55;31.58;;;9.50;99.90;;;;;;5071192;28;20033;-73
2022/10/03 01:06:55;;;;;;;54.30;30.40;;;9.40;99.90;;;;;;5058329;28;20082;-72
2022/10/03 01:09:53;;;;;;;68.00;34.47;;;9.30;99.90;;;;;;5071298;28;20490;-73
2022/10/03 01:12:31;;;;;;;87.60;36.97;;;9.40;99.90;;;;;;5080200;28;20035;-72
2022/10/03 01:15:21;;;;;;;124.47;42.70;;;9.30;99.90;;;;;;5091315;28;20032;-72
2022/10/03 01:18:02;;;;;;;86.28;35.85;;;9.40;99.90;;;;;;5090635;28;20059;-72
2022/10/03 01:20:39;;;;;;;60.13;32.22;;;9.40;99.90;;;;;;5095150;28;20035;-72
2022/10/03 01:23:13;;;;;;;60.63;28.85;;;9.40;99.90;;;;;;5093878;28;20020;-72
2022/10/03 01:26:15;;;;;;;89.35;34.78;;;9.40;99.90;;;;;;5095473;28;20050;-72
2022/10/03 01:31:53;;;;;;;86.60;35.72;;;9.20;99.90;;;;;;5095434;28;20069;-72
2022/10/03 01:34:22;;;;;;;95.60;37.65;;;9.20;99.90;;;;;;5095048;28;20084;-75
2022/10/03 01:36:51;;;;;;;72.22;35.15;;;9.20;99.90;;;;;;5093554;28;20035;-74
2022/10/03 01:39:52;;;;;;;201.23;40.20;;;9.10;99.90;;;;;;5093719;28;20039;-74
2022/10/03 01:42:51;;;;;;;190.15;46.33;;;9.00;99.90;;;;;;5095060;28;20024;-74
2022/10/03 01:45:17;;;;;;;99.05;34.88;;;8.90;99.90;;;;;;5054735;28;20119;-74
2022/10/03 01:47:51;;;;;;;211.20;40.90;;;8.90;99.90;;;;;;5094638;28;20066;-74
2022/10/03 01:50:22;;;;;;;325.65;44.50;;;9.00;99.90;;;;;;5093347;28;20653;-74
2022/10/03 01:52:59;;;;;;;200.70;40.70;;;8.90;99.90;;;;;;5093571;28;20677;-74
2022/10/03 01:55:47;;;;;;;249.65;46.55;;;8.90;99.90;;;;;;5094693;28;20055;-74
2022/10/03 01:58:26;;;;;;;198.70;41.17;;;8.80;99.90;;;;;;5094333;28;20020;-74
2022/10/03 02:01:07;;;;;;;326.42;49.92;;;8.80;99.90;;;;;;5094572;28;20421;-74
2022/10/03 02:03:53;;;;;;;400.42;48.72;;;8.80;99.90;;;;;;5094640;28;20033;-74
2022/10/03 02:06:44;;;;;;;377.50;45.28;;;8.90;99.90;;;;;;5062421;28;20079;-74
2022/10/03 02:09:38;;;;;;;227.73;44.97;;;9.00;99.90;;;;;;5074092;28;20077;-74
2022/10/03 02:12:14;;;;;;;309.13;49.03;;;9.00;99.90;;;;;;5077828;28;20042;-74
2022/10/03 02:14:50;;;;;;;262.50;45.80;;;9.00;99.90;;;;;;5094230;28;20069;-74
2022/10/03 02:17:19;;;;;;;;;;;9.10;99.90;;;;;;5094296;28;20482;-74
2022/10/03 02:19:49;;;;;;;351.08;45.20;;;9.10;99.90;;;;;;5092701;28;19904;-75
2022/10/03 02:22:34;;;;;;;236.07;43.22;;;9.10;99.90;;;;;;5094205;28;20020;-74
2022/10/03 02:25:21;;;;;;;322.42;42.20;;;9.10;99.90;;;;;;5094210;28;20023;-75
2022/10/03 02:28:04;;;;;;;336.27;58.13;;;9.10;99.90;;;;;;5093772;28;20032;-74
2022/10/03 02:31:13;;;;;;;552.92;61.83;;;9.20;99.90;;;;;;5093282;28;20031;-74
2022/10/03 02:34:14;;;;;;;684.53;70.45;;;9.20;99.90;;;;;;5094052;28;20028;-74
2022/10/03 02:36:55;;;;;;;822.58;87.13;;;9.30;99.90;;;;;;5093983;28;20046;-74
2022/10/03 02:39:21;;;;;;;617.20;56.78;;;9.30;99.90;;;;;;5092717;28;20503;-74
2022/10/03 02:42:15;;;;;;;1032.20;88.07;;;9.20;99.90;;;;;;5095242;28;20028;-74
2022/10/03 02:45:02;;;;;;;570.38;56.10;;;9.30;99.90;;;;;;5094400;28;20024;-74
2022/10/03 02:47:55;;;;;;;355.98;51.40;;;9.20;99.90;;;;;;5087861;28;20512;-74
2022/10/03 02:50:27;;;;;;;729.42;74.72;;;9.20;99.90;;;;;;5073220;28;20020;-74
2022/10/03 02:53:21;;;;;;;722.33;71.25;;;9.10;99.90;;;;;;5073663;28;20036;-74
2022/10/03 02:56:04;;;;;;;791.17;78.10;;;9.00;99.90;;;;;;5071936;28;20501;-74
2022/10/03 02:58:55;;;;;;;511.65;65.55;;;9.10;99.90;;;;;;5072922;28;20440;-74
2022/10/03 03:01:58;;;;;;;628.15;76.30;;;9.10;99.90;;;;;;5073150;28;20100;-74
2022/10/03 03:04:45;;;;;;;847.17;81.38;;;9.10;99.90;;;;;;5020298;28;20390;-74
2022/10/03 03:07:31;;;;;;;740.50;80.18;;;9.00;99.90;;;;;;5060706;28;20024;-74
2022/10/03 03:10:22;;;;;;;706.10;76.82;;;9.00;99.90;;;;;;5071261;28;20082;-74
2022/10/03 03:13:21;;;;;;;802.15;73.13;;;9.00;99.90;;;;;;5023130;28;20037;-74
2022/10/03 03:15:59;;;;;;;634.13;60.50;;;9.00;99.90;;;;;;5072873;28;20508;-74
2022/10/03 03:18:30;;;;;;;856.47;79.65;;;9.10;99.90;;;;;;5072539;28;20493;-74
2022/10/03 03:21:16;;;;;;;474.65;46.67;;;9.10;99.90;;;;;;5072506;28;20547;-74
2022/10/03 03:23:51;;;;;;;444.05;61.50;;;9.10;99.90;;;;;;5072722;28;20048;-74
2022/10/03 03:26:52;;;;;;;822.92;79.75;;;9.20;99.90;;;;;;5090629;28;20103;-74
2022/10/03 03:29:43;;;;;;;550.08;64.88;;;9.10;99.90;;;;;;5092841;28;20027;-74
2022/10/03 03:32:36;;;;;;;553.97;53.83;;;9.20;99.90;;;;;;5051104;28;20040;-74
2022/10/03 03:35:29;;;;;;;699.53;74.63;;;9.20;99.90;;;;;;5092912;28;20025;-74
2022/10/03 03:38:07;;;;;;;567.40;60.70;;;9.10;99.90;;;;;;5072457;28;20017;-74
2022/10/03 03:40:45;;;;;;;329.48;42.20;;;9.10;99.90;;;;;;5072122;28;20028;-74
2022/10/03 03:44:07;;;;;;;796.80;65.32;;;9.10;99.90;;;;;;5092121;28;20031;-74
2022/10/03 03:46:52;;;;;;;636.85;57.70;;;9.10;99.90;;;;;;4993795;28;20048;-74
2022/10/03 03:49:54;;;;;;;331.45;50.25;;;9.10;99.90;;;;;;4993929;28;20053;-74
2022/10/03 03:52:44;;;;;;;306.42;44.17;;;9.20;99.90;;;;;;5078830;28;20043;-74
2022/10/03 03:55:31;;;;;;;320.92;48.25;;;9.20;99.90;;;;;;5092143;28;20391;-74
2022/10/03 03:58:08;;;;;;;213.10;47.75;;;9.20;99.90;;;;;;5092259;28;20032;-74
2022/10/03 04:00:57;;;;;;;488.00;67.50;;;9.30;99.90;;;;;;5092122;28;20065;-74
2022/10/03 04:03:37;;;;;;;189.60;42.08;;;9.20;99.90;;;;;;5092125;28;20027;-74
2022/10/03 04:06:39;;;;;;;167.02;48.60;;;9.20;99.90;;;;;;5063851;28;20024;-74
2022/10/03 04:09:46;;;;;;;211.18;55.40;;;9.20;99.90;;;;;;5072495;28;20021;-74
2022/10/03 04:12:23;;;;;;;157.45;45.42;;;9.20;99.90;;;;;;5005745;28;20403;-74
2022/10/03 04:15:06;;;;;;;72.80;36.95;;;9.20;99.90;;;;;;5067779;28;20033;-74
2022/10/03 04:21:26;;;;;;;51.13;34.00;;;9.30;99.90;;;;;;5071609;28;20055;-74
2022/10/03 04:24:35;;;;;;;87.38;40.78;;;9.40;99.90;;;;;;5071576;28;20027;-74
2022/10/03 04:27:22;;;;;;;62.70;37.28;;;9.40;99.90;;;;;;5071499;28;20020;-74
2022/10/03 04:29:58;;;;;;;86.00;41.05;;;9.30;99.90;;;;;;5058701;28;20036;-74
2022/10/03 04:33:01;;;;;;;106.00;46.08;;;9.20;99.90;;;;;;5071590;28;20100;-74
2022/10/03 04:35:44;;;;;;;66.25;35.55;;;9.10;99.90;;;;;;5071784;28;20031;-74
2022/10/03 04:38:38;;;;;;;56.63;34.17;;;9.20;99.90;;;;;;5071382;28;20020;-74
2022/10/03 04:41:36;;;;;;;64.13;37.30;;;9.20;99.90;;;;;;5071599;28;20486;-74
2022/10/03 04:44:30;;;;;;;49.13;31.15;;;9.30;99.90;;;;;;5020980;28;20120;-74
2022/10/03 04:47:05;;;;;;;51.70;33.05;;;9.30;99.90;;;;;;5084836;28;20536;-74
2022/10/03 04:49:46;;;;;;;75.00;37.90;;;9.30;99.90;;;;;;5071415;28;20483;-74
2022/10/03 04:52:30;;;;;;;48.28;30.40;;;9.30;99.90;;;;;;5071441;28;20078;-74
2022/10/03 04:55:05;;;;;;;54.83;30.65;;;9.30;99.90;;;;;;5074290;28;20020;-74
2022/10/03 04:57:50;;;;;;;55.70;31.65;;;9.30;99.90;;;;;;5075282;28;20126;-74
2022/10/03 05:00:40;;;;;;;46.97;29.83;;;9.30;99.90;;;;;;5074147;28;20104;-74
2022/10/03 05:03:32;;;;;;;49.83;31.55;;;9.30;99.90;;;;;;5074370;28;20021;-74
2022/10/03 05:06:01;;;;;;;48.85;31.42;;;9.40;99.90;;;;;;5075202;28;20031;-74
2022/10/03 05:08:58;;;;;;;55.85;33.00;;;9.40;99.90;;;;;;5075122;28;20108;-74
2022/10/03 05:11:54;;;;;;;51.88;31.80;;;9.30;99.90;;;;;;5077630;28;20071;-74
2022/10/03 05:14:41;;;;;;;56.40;32.97;;;9.30;99.90;;;;;;5095378;28;20035;-74
2022/10/03 05:17:44;;;;;;;74.88;35.90;;;9.30;99.90;;;;;;5095241;28;20028;-74
2022/10/03 05:20:22;;;;;;;66.13;35.40;;;9.20;99.90;;;;;;5040376;22;20039;-73
2022/10/03 05:23:16;;;;;;;75.35;38.60;;;9.20;99.90;;;;;;5034801;28;20033;-74
2022/10/03 05:26:05;;;;;;;56.15;31.90;;;9.10;99.90;;;;;;5004377;28;20053;-74
2022/10/03 05:29:05;;;;;;;66.35;34.78;;;9.30;99.90;;;;;;5015195;28;20022;-74
2022/10/03 05:31:36;;;;;;;59.70;36.03;;;9.30;99.90;;;;;;5015240;28;20077;-74
2022/10/03 05:34:08;;;;;;;63.13;35.65;;;9.20;99.90;;;;;;5016704;28;20018;-73
2022/10/03 05:37:03;;;;;;;46.17;30.75;;;9.10;99.90;;;;;;5034814;28;20030;-74
2022/10/03 05:39:45;;;;;;;48.78;31.90;;;9.20;99.90;;;;;;5027448;28;20028;-74
2022/10/03 05:42:32;;;;;;;65.95;34.92;;;9.20;99.90;;;;;;5016712;28;20105;-74
2022/10/03 05:45:20;;;;;;;61.33;36.00;;;9.30;99.90;;;;;;5022498;28;20033;-74
2022/10/03 05:48:13;;;;;;;69.07;38.97;;;9.20;99.90;;;;;;5014762;28;20022;-73
2022/10/03 05:50:47;;;;;;;74.50;38.58;;;9.20;99.90;;;;;;5014999;28;20064;-74
2022/10/03 05:53:18;;;;;;;74.03;38.85;;;9.20;99.90;;;;;;5027306;28;20121;-73
2022/10/03 05:56:20;;;;;;;47.47;31.77;;;9.30;99.90;;;;;;5014611;28;20033;-73
2022/10/03 05:59:23;;;;;;;47.65;31.10;;;9.40;99.90;;;;;;5013247;28;20253;-74
2022/10/03 06:02:22;;;;;;;72.97;38.90;;;9.50;99.90;;;;;;5027709;28;20022;-74
2022/10/03 06:05:25;;;;;;;62.80;36.33;;;9.50;99.90;;;;;;5007203;28;20034;-74
2022/10/03 06:08:24;;;;;;;76.55;40.72;;;9.40;99.90;;;;;;5020775;28;20531;-73
2022/10/03 06:10:55;;;;;;;87.10;42.50;;;9.40;99.90;;;;;;5032955;28;20124;-74
2022/10/03 06:13:55;;;;;;;62.17;37.45;;;9.30;99.90;;;;;;5031581;28;20441;-74
2022/10/03 06:16:36;;;;;;;51.90;32.92;;;9.30;99.90;;;;;;5030765;28;20026;-74
2022/10/03 06:19:29;;;;;;;45.92;33.03;;;9.30;99.90;;;;;;5050340;28;20807;-74
2022/10/03 06:22:14;;;;;;;73.63;43.35;;;9.40;99.90;;;;;;5032586;28;20084;-74
2022/10/03 06:25:13;;;;;;;88.88;61.55;;;9.40;99.90;;;;;;5032686;28;20021;-74
2022/10/03 06:27:54;;;;;;;112.13;76.20;;;9.20;99.90;;;;;;5016607;28;20026;-74
2022/10/03 06:30:32;;;;;;;146.63;93.35;;;9.20;99.90;;;;;;5025351;28;20034;-74
2022/10/03 06:33:25;;;;;;;243.20;161.07;;;9.10;99.90;;;;;;5014478;28;20022;-74
2022/10/03 06:36:31;;;;;;;176.65;114.30;;;9.10;99.90;;;;;;5030355;28;20029;-73
2022/10/03 06:39:43;;;;;;;169.90;114.03;;;9.30;99.90;;;;;;5008691;28;20038;-73
2022/10/03 06:42:44;;;;;;;64.20;45.00;;;9.30;99.90;;;;;;5013815;28;20018;-73
2022/10/03 06:45:43;;;;;;;48.13;33.78;;;9.50;99.90;;;;;;5013879;28;20022;-73
2022/10/03 06:48:47;;;;;;;39.70;28.42;;;9.70;99.90;;;;;;5013510;28;20061;-73
2022/10/03 06:51:31;;;;;;;35.80;26.13;;;9.80;99.90;;;;;;5013678;28;20022;-73
2022/10/03 06:54:34;;;;;;;46.53;28.88;;;10.00;99.90;;;;;;5019074;28;20022;-73
2022/10/03 06:57:20;;;;;;;42.70;25.85;;;10.10;99.90;;;;;;5032960;28;20025;-73
2022/10/03 06:59:52;;;;;;;;;;;10.00;99.90;;;;;;5032424;28;20022;-74
2022/10/03 07:02:39;;;;;;;36.55;25.75;;;9.80;99.90;;;;;;5031969;28;19941;-73
2022/10/03 07:05:26;;;;;;;33.90;23.55;;;9.90;99.90;;;;;;5028479;28;20111;-73
2022/10/03 07:08:16;;;;;;;35.53;24.40;;;10.00;99.90;;;;;;5012942;28;20388;-73
2022/10/03 07:10:54;;;;;;;40.35;26.52;;;9.80;99.90;;;;;;5011879;28;20089;-73
2022/10/03 07:13:51;;;;;;;31.42;22.83;;;9.90;99.90;;;;;;5031707;28;20033;-73
2022/10/03 07:16:40;;;;;;;40.53;26.48;;;9.90;99.90;;;;;;5031381;28;20406;-73
2022/10/03 07:19:11;;;;;;;37.50;23.83;;;10.10;99.90;;;;;;5032929;28;20029;-73
2022/10/03 07:21:46;;;;;;;31.02;21.42;;;10.20;99.90;;;;;;5032739;28;20107;-73
2022/10/03 07:24:49;;;;;;;33.20;21.60;;;10.10;99.90;;;;;;5031628;28;20121;-73
2022/10/03 07:27:28;;;;;;;29.88;20.63;;;10.00;99.90;;;;;;5019755;28;20033;-75
2022/10/03 07:30:07;;;;;;;31.35;20.80;;;10.00;99.90;;;;;;5013053;28;20108;-73
2022/10/03 07:32:39;;;;;;;27.45;18.98;;;10.00;99.90;;;;;;5013016;28;20052;-74
2022/10/03 07:38:56;;;;;;;30.58;20.50;;;10.00;99.90;;;;;;5011664;28;20099;-73
2022/10/03 07:38:58;;;;;;;29.73;19.48;;;10.10;99.90;;;;;;5012717;28;20037;-73
2022/10/03 07:41:30;;;;;;;27.90;19.25;;;9.90;99.90;;;;;;5011937;28;20361;-73
2022/10/03 07:44:09;;;;;;;25.80;18.08;;;10.00;99.90;;;;;;5011542;28;20081;-74
2022/10/03 07:47:13;;;;;;;29.13;18.50;;;10.10;99.90;;;;;;5012763;28;20030;-73
2022/10/03 07:50:09;;;;;;;25.50;17.63;;;10.10;99.90;;;;;;4977712;28;20027;-73
2022/10/03 07:52:46;;;;;;;26.02;17.23;;;10.20;99.90;;;;;;5023426;28;20033;-73
2022/10/03 07:55:30;;;;;;;25.67;18.00;;;10.10;99.90;;;;;;5027927;28;20026;-73
2022/10/03 07:58:13;;;;;;;26.95;16.83;;;10.20;99.90;;;;;;5032102;28;20053;-73
2022/10/03 08:01:06;;;;;;;27.50;16.85;;;10.10;99.90;;;;;;5032235;28;20026;-73
2022/10/03 08:04:09;;;;;;;32.22;21.88;;;10.20;99.90;;;;;;5032162;28;20021;-73
2022/10/03 08:06:51;;;;;;;32.50;19.67;;;10.30;99.90;;;;;;5042617;28;20045;-73
2022/10/03 08:09:45;;;;;;;23.15;17.55;;;10.20;99.90;;;;;;5012456;28;20018;-73
2022/10/03 08:12:40;;;;;;;22.35;16.08;;;10.40;99.90;;;;;;5022798;28;20025;-73
2022/10/03 08:15:23;;;;;;;22.00;15.25;;;10.50;99.90;;;;;;5032078;28;20029;-73
2022/10/03 08:18:26;;;;;;;21.15;14.23;;;10.70;99.90;;;;;;5031628;28;20026;-73
2022/10/03 08:20:56;;;;;;;19.73;14.02;;;11.00;99.90;;;;;;5031649;28;20029;-73
2022/10/03 08:23:37;;;;;;;21.00;13.63;;;11.10;99.90;;;;;;5030691;28;20108;-73
2022/10/03 08:26:24;;;;;;;19.98;12.45;;;11.20;99.90;;;;;;5031812;28;20033;-73
2022/10/03 08:29:27;;;;;;;22.08;14.02;;;11.30;99.90;;;;;;5031118;28;20025;-73
2022/10/03 08:32:22;;;;;;;18.70;10.73;;;11.60;99.90;;;;;;5031694;28;20084;-73
2022/10/03 08:35:18;;;;;;;25.00;10.07;;;11.30;99.90;;;;;;5031721;28;20026;-73
2022/10/03 08:38:05;;;;;;;18.45;9.68;;;11.20;99.90;;;;;;5031406;28;20022;-73
2022/10/03 08:40:30;;;;;;;;;;;11.30;99.90;;;;;;5030673;28;20063;-74
2022/10/03 08:43:44;;;;;;;13.13;8.00;;;11.40;99.90;;;;;;5031807;28;19941;-73
2022/10/03 08:46:38;;;;;;;15.82;8.25;;;11.40;99.90;;;;;;5032151;28;20076;-73
2022/10/03 08:49:40;;;;;;;19.90;8.73;;;11.30;99.90;;;;;;5031297;28;20022;-73
2022/10/03 08:52:37;;;;;;;17.73;8.23;;;11.40;99.90;;;;;;5031515;28;20029;-73
2022/10/03 08:55:03;;;;;;;13.88;7.50;;;11.40;99.90;;;;;;5031444;28;20036;-73
2022/10/03 08:58:11;;;;;;;13.57;8.07;;;11.50;99.90;;;;;;5031210;28;20026;-73
2022/10/03 09:00:57;;;;;;;13.48;8.15;;;11.60;99.90;;;;;;4994905;28;20062;-74
2022/10/03 09:04:01;;;;;;;15.45;8.38;;;11.70;99.90;;;;;;5011742;28;20072;-73
2022/10/03 09:06:45;;;;;;;13.48;6.65;;;11.70;99.90;;;;;;5039560;28;20036;-73
2022/10/03 09:09:21;;;;;;;14.85;5.75;;;11.80;99.90;;;;;;5011552;28;20030;-73
2022/10/03 09:12:13;;;;;;;13.55;5.95;;;11.80;99.90;;;;;;5018647;28;20394;-73
2022/10/03 09:15:17;;;;;;;15.38;7.43;;;11.80;99.90;;;;;;5031360;28;20029;-73
2022/10/03 09:18:16;;;;;;;12.95;5.35;;;11.90;99.90;;;;;;5030963;28;20026;-73
2022/10/03 09:21:05;;;;;;;16.55;5.55;;;11.80;99.90;;;;;;5031173;28;20029;-73
2022/10/03 09:23:44;;;;;;;12.25;5.50;;;11.90;99.90;;;;;;5031282;28;20040;-73
2022/10/03 09:26:37;;;;;;;11.32;5.90;;;12.00;99.90;;;;;;5031249;28;20471;-73
2022/10/03 09:29:45;;;;;;;18.35;8.52;;;12.20;99.90;;;;;;5029652;28;20120;-73
2022/10/03 09:32:29;;;;;;;13.82;5.40;;;12.20;99.90;;;;;;5031079;28;20022;-73
2022/10/03 09:35:06;;;;;;;11.15;6.03;;;12.40;99.90;;;;;;5031017;28;20104;-73
2022/10/03 09:37:55;;;;;;;10.90;5.47;;;12.20;99.90;;;;;;5030887;28;20108;-73
2022/10/03 09:40:39;;;;;;;14.63;5.72;;;12.20;99.90;;;;;;5034619;28;20062;-73
2022/10/03 09:43:16;;;;;;;10.25;5.55;;;12.10;99.90;;;;;;5034712;28;20079;-73
2022/10/03 09:46:09;;;;;;;11.75;4.97;;;12.10;99.90;;;;;;5034729;28;20476;-72
2022/10/03 09:48:59;;;;;;;8.02;4.55;;;12.10;99.90;;;;;;5034443;28;20030;-73
2022/10/03 09:51:55;;;;;;;14.48;4.70;;;12.20;99.90;;;;;;5034552;28;20394;-73
2022/10/03 09:55:00;;;;;;;10.90;4.78;;;12.70;99.90;;;;;;5034635;28;20487;-73
2022/10/03 09:57:37;;;;;;;10.77;4.70;;;12.80;99.90;;;;;;5034299;28;20067;-73
2022/10/03 10:00:23;;;;;;;10.80;4.32;;;12.90;99.90;;;;;;5034420;28;20053;-73
2022/10/03 10:03:26;;;;;;;10.80;4.07;;;13.30;99.90;;;;;;5033109;28;20103;-73
2022/10/03 10:06:09;;;;;;;12.95;4.80;;;12.90;99.90;;;;;;5033798;28;20026;-73
2022/10/03 10:09:13;;;;;;;13.18;4.47;;;13.10;99.90;;;;;;5034312;28;20032;-73
2022/10/03 10:11:55;;;;;;;10.48;4.28;;;13.10;99.90;;;;;;5026812;28;20033;-73
2022/10/03 10:14:45;;;;;;;9.13;3.78;;;13.30;99.90;;;;;;5014557;28;20383;-73
2022/10/03 10:17:25;;;;;;;9.98;4.07;;;13.20;99.90;;;;;;5014115;28;20503;-73
2022/10/03 10:20:20;;;;;;;12.75;4.25;;;12.60;99.90;;;;;;5014015;28;20041;-73
2022/10/03 10:22:58;;;;;;;11.25;3.80;;;12.40;99.90;;;;;;5013243;28;20029;-73
2022/10/03 10:25:41;;;;;;;9.10;4.38;;;12.20;99.90;;;;;;5013194;28;20026;-74
2022/10/03 10:28:23;;;;;;;11.48;4.03;;;12.40;99.90;;;;;;5013985;28;20022;-73
2022/10/03 10:30:53;;;;;;;11.20;3.78;;;12.40;99.90;;;;;;5028783;28;20467;-73
2022/10/03 10:34:02;;;;;;;7.55;3.67;;;12.30;99.90;;;;;;5034294;28;20100;-73
2022/10/03 10:36:59;;;;;;;8.70;4.00;;;12.50;99.90;;;;;;5032524;28;20029;-73
2022/10/03 10:39:53;;;;;;;6.47;3.60;;;12.50;99.90;;;;;;5034052;28;20072;-73
2022/10/03 10:42:37;;;;;;;7.68;3.53;;;12.40;99.90;;;;;;5033724;28;20112;-73
2022/10/03 10:45:23;;;;;;;11.38;3.83;;;12.30;99.90;;;;;;5033700;28;20487;-73
2022/10/03 10:48:20;;;;;;;10.82;4.15;;;12.20;99.90;;;;;;5033725;28;20025;-73
2022/10/03 10:50:57;;;;;;;10.23;3.72;;;12.40;99.90;;;;;;5032924;28;20021;-73
2022/10/03 10:53:44;;;;;;;8.25;2.72;;;12.40;99.90;;;;;;5033801;28;20489;-73
2022/10/03 10:56:34;;;;;;;8.05;3.80;;;12.50;99.90;;;;;;5033435;28;20025;-73
2022/10/03 10:59:21;;;;;;;8.35;3.88;;;12.50;99.90;;;;;;5033358;28;20459;-72
2022/10/03 11:02:12;;;;;;;9.38;3.78;;;12.50;99.90;;;;;;5032184;28;20560;-73
2022/10/03 11:05:17;;;;;;;9.15;3.92;;;12.40;99.90;;;;;;5033602;28;20509;-73
2022/10/03 11:07:49;;;;;;;7.45;3.50;;;12.60;99.90;;;;;;5028301;28;20113;-73
2022/10/03 11:10:30;;;;;;;6.63;2.90;;;12.70;99.90;;;;;;5013414;28;20092;-73
2022/10/03 11:13:26;;;;;;;9.00;3.20;;;12.80;99.90;;;;;;5029984;28;20024;-73
2022/10/03 11:16:34;;;;;;;7.40;3.58;;;13.20;99.90;;;;;;5031921;28;20025;-72
2022/10/03 11:19:18;;;;;;;;;;;13.60;99.90;;;;;;5033230;28;20033;-73
2022/10/03 11:22:15;;;;;;;6.57;3.08;;;13.50;99.90;;;;;;5033536;28;19917;-73
2022/10/03 11:24:59;;;;;;;;;;;13.60;99.90;;;;;;5033442;28;20024;-73
2022/10/03 11:27:53;;;;;;;7.43;3.05;;;13.60;99.90;;;;;;5031287;28;19909;-72
2022/10/03 11:30:48;;;;;;;7.47;2.97;;;13.80;99.90;;;;;;5032732;28;20029;-73
2022/10/03 11:33:45;;;;;;;7.40;2.75;;;13.70;99.90;;;;;;5032829;28;20032;-73
2022/10/03 11:36:42;;;;;;;8.18;3.20;;;13.90;99.90;;;;;;5031453;28;20091;-73
2022/10/03 11:39:31;;;;;;;7.65;3.03;;;13.70;99.90;;;;;;5031256;28;20024;-73
2022/10/03 11:42:26;;;;;;;10.45;3.33;;;13.70;99.90;;;;;;5032431;28;20025;-72
2022/10/03 11:45:02;;;;;;;7.32;2.75;;;13.70;99.90;;;;;;5011738;28;20030;-73
2022/10/03 11:47:42;;;;;;;8.80;3.08;;;13.90;99.90;;;;;;5031160;28;20060;-74
2022/10/03 11:50:35;;;;;;;9.43;2.70;;;14.30;99.90;;;;;;5031043;28;20515;-73
2022/10/03 11:53:25;;;;;;;5.65;2.58;;;14.80;99.90;;;;;;5032494;28;20026;-74
2022/10/03 11:56:12;;;;;;;6.60;2.67;;;15.40;99.90;;;;;;5032368;28;20499;-74
2022/10/03 11:58:55;;;;;;;9.55;2.47;;;16.00;99.90;;;;;;5031973;28;20021;-73
2022/10/03 12:01:36;;;;;;;5.30;2.40;;;16.30;99.90;;;;;;5032122;28;20391;-73
2022/10/03 12:04:24;;;;;;;6.45;2.30;;;16.00;99.90;;;;;;5031621;28;20053;-73
2022/10/03 12:10:15;;;;;;;6.95;2.17;;;15.90;99.90;;;;;;5012282;28;20041;-74
2022/10/03 12:12:44;;;;;;;7.80;2.05;;;15.80;99.90;;;;;;5026859;28;20028;-74
2022/10/03 12:15:37;;;;;;;8.73;2.20;;;15.30;99.90;;;;;;5031833;28;20057;-73
2022/10/03 12:18:21;;;;;;;4.63;1.80;;;15.00;99.90;;;;;;5031834;28;20026;-73
2022/10/03 12:21:07;;;;;;;6.15;1.90;;;15.10;99.90;;;;;;5031838;28;20530;-73
2022/10/03 12:23:57;;;;;;;7.20;1.85;;;15.10;99.90;;;;;;5031704;28;20036;-74
2022/10/03 12:26:31;;;;;;;7.35;2.20;;;14.80;99.90;;;;;;5011549;28;20120;-73
2022/10/03 12:28:59;;;;;;;6.85;2.95;;;14.60;99.90;;;;;;5023922;28;20037;-73
2022/10/03 12:31:36;;;;;;;7.68;2.40;;;14.70;99.90;;;;;;5025011;28;20030;-73
2022/10/03 12:34:24;;;;;;;6.05;2.55;;;15.10;99.90;;;;;;5011984;28;20785;-73
2022/10/03 12:37:02;;;;;;;5.47;1.60;;;14.90;99.90;;;;;;5011966;28;20100;-73
2022/10/03 12:39:44;;;;;;;4.72;1.95;;;15.50;99.90;;;;;;5011937;28;20022;-73
2022/10/03 12:42:29;;;;;;;3.95;1.58;;;15.20;99.90;;;;;;5027197;28;20384;-73
2022/10/03 12:45:19;;;;;;;3.97;1.45;;;14.90;99.90;;;;;;5011829;28;20018;-74
2022/10/03 12:48:11;;;;;;;6.25;1.65;;;14.60;99.90;;;;;;5011551;28;20036;-74
2022/10/03 12:50:44;;;;;;;4.25;1.58;;;14.40;99.90;;;;;;5011720;28;20034;-74
2022/10/03 12:53:16;;;;;;;5.07;1.70;;;14.30;99.90;;;;;;5010620;28;20041;-73
2022/10/03 12:56:06;;;;;;;4.65;1.63;;;14.30;99.90;;;;;;5011573;28;20030;-73
2022/10/03 12:58:45;;;;;;;5.20;1.63;;;14.30;99.90;;;;;;5011309;28;20061;-73
2022/10/03 13:01:56;;;;;;;4.10;1.38;;;14.40;99.90;;;;;;5011677;28;20479;-73
2022/10/03 13:04:37;;;;;;;5.53;1.67;;;14.70;99.90;;;;;;4995688;28;20495;-73
2022/10/03 13:07:15;;;;;;;2.85;1.33;;;14.70;99.90;;;;;;5018198;28;20140;-74
2022/10/03 13:10:02;;;;;;;5.47;1.90;;;16.40;99.90;;;;;;5031353;28;20025;-73
2022/10/03 13:12:33;;;;;;;3.80;1.50;;;16.40;99.90;;;;;;5018664;28;20026;-74
2022/10/03 13:15:20;;;;;;;3.50;1.40;;;16.70;99.90;;;;;;5014524;28;20026;-73
2022/10/03 13:17:58;;;;;;;5.07;1.67;;;16.10;99.90;;;;;;5028121;28;20029;-73
2022/10/03 13:20:32;;;;;;;4.78;1.70;;;15.90;99.90;;;;;;5035122;28;20111;-73
2022/10/03 13:23:42;;;;;;;4.47;1.60;;;15.90;99.90;;;;;;5017954;28;20384;-73
2022/10/03 13:26:14;;;;;;;4.03;1.67;;;18.00;99.90;;;;;;4973700;28;20071;-74
2022/10/03 13:29:00;;;;;;;7.28;1.80;;;19.60;99.90;;;;;;4973624;28;20054;-74
2022/10/03 13:31:31;;;;;;;6.25;1.80;;;20.00;99.90;;;;;;4990396;28;20526;-75
2022/10/03 13:34:01;;;;;;;5.72;1.80;;;20.40;99.90;;;;;;5015319;28;20034;-74
2022/10/03 13:36:53;;;;;;;3.70;1.65;;;20.00;99.90;;;;;;5013525;28;20030;-74
2022/10/03 13:39:26;;;;;;;4.10;1.70;;;20.20;99.90;;;;;;5014943;28;20196;-73
2022/10/03 13:42:01;;;;;;;8.02;2.10;;;19.30;99.90;;;;;;5013643;28;20033;-73
2022/10/03 13:44:40;;;;;;;7.35;2.10;;;17.60;99.90;;;;;;5015116;28;20095;-74
2022/10/03 13:47:40;;;;;;;6.95;1.67;;;16.50;99.90;;;;;;5014628;28;20061;-73
2022/10/03 13:50:17;;;;;;;5.32;2.45;;;15.60;99.90;;;;;;5014779;28;20087;-74
2022/10/03 13:53:05;;;;;;;6.28;2.30;;;15.10;99.90;;;;;;5013011;28;20030;-73
2022/10/03 13:55:51;;;;;;;4.70;1.40;;;15.00;99.90;;;;;;5014851;28;20050;-73
2022/10/03 13:58:56;;;;;;;6.25;2.15;;;15.20;99.90;;;;;;5014408;28;20396;-72
2022/10/03 14:01:44;;;;;;;5.72;1.90;;;15.20;99.90;;;;;;5014665;28;20048;-74
2022/10/03 14:04:43;;;;;;;4.38;2.80;;;15.30;99.90;;;;;;5014708;28;20030;-73
2022/10/03 14:07:27;;;;;;;7.03;2.03;;;15.20;99.90;;;;;;5022013;28;20078;-72
2022/10/03 14:10:07;;;;;;;4.15;1.60;;;15.40;99.90;;;;;;5034242;28;20029;-73
2022/10/03 14:13:18;;;;;;;4.97;1.65;;;15.00;99.90;;;;;;5019481;28;20041;-72
2022/10/03 14:16:11;;;;;;;3.42;1.50;;;15.60;99.90;;;;;;5013598;28;20037;-73
2022/10/03 14:19:01;;;;;;;4.18;1.52;;;15.70;99.90;;;;;;5033963;28;20025;-72
2022/10/03 14:21:43;;;;;;;4.50;1.60;;;15.30;99.90;;;;;;5034229;28;20036;-74
2022/10/03 14:24:58;;;;;;;2.95;1.35;;;16.20;99.90;;;;;;5032693;28;20033;-74
2022/10/03 14:27:48;;;;;;;4.18;1.25;;;17.90;99.90;;;;;;5027575;28;20034;-73
2022/10/03 14:30:16;;;;;;;4.47;1.67;;;17.10;99.90;;;;;;5033876;28;20049;-74